Aérodrome :
LOGIN :

S'inscrire | Disclaimer

   EN    FR    IT 

 










Légende :    VFR   VFR Marginal   IFR   IFR Intensif   IFR Très Intensif
Visi : 
Plafond : 
>= 8 km
>= 3000ft
5 à 8 km
1000 à 3000 ft
1500m à 5 km
500 à 1000 ft
800 à 1500m
200 à 500 ft
< 800m
< 200 ft
Symboles :   Orages  Brouillard  Fortes neiges  Fortes précipitations  Vent > 20 kt
SIGMETs :   Divers  Orages  Givrage  Turbulence  Onde Orograph.  Cendres Volcan.






- Altitude de l'aérodrome : 37 ft


EHVL - Vlieland Heliport

DERNIER METAR :
  • 211155Z AUTO 35004KT 310V010 9999 NCD 18/13 Q1017 BLU

METARs EXPIRÉS :
  • 211125Z AUTO 11003KT 070V150 9999 NCD 20/11 Q1017 BLU
  • 211055Z AUTO 12004KT 9999 NCD 19/11 Q1017 BLU
  • 211025Z AUTO 14004KT 100V170 9999 NCD 18/10 Q1017 BLU
  • 210955Z AUTO 14003KT 100V190 9999 NCD 18/11 Q1017 BLU
  • 210925Z AUTO 12004KT 9999 NCD 17/11 Q1017 BLU

Prévision TAF périmée.



MET'MAP, la Météo Aéronautique d'un coup d'oeil ! - Copyright ORBIFLY Décembre 2007 - Disclaimer

ORBIFLY MET'MAP TEAM :

Programmation & Développement : Alexandra Zaïnal
Sur une idée originale de : Baudouin d'Aumeries
Assistance à la programmation : Marc-Olivier Méhu
Soutien technique & logistique : Manuel Goepfert

Contact : metmap@orbifly.com




SOURCES & CREDITS :

   NOAA